createdAt,value
2018-12-24T00:00:54.463Z,0.00
2018-12-24T00:01:54.533Z,0.00
2018-12-24T00:02:54.698Z,0.00
2018-12-24T00:03:54.867Z,0.00
2018-12-24T00:04:55.025Z,0.00
2018-12-24T00:05:55.198Z,0.00
2018-12-24T00:06:55.357Z,0.00
2018-12-24T00:07:55.777Z,0.00
2018-12-24T00:08:55.672Z,0.00
2018-12-24T00:09:55.838Z,0.00
2018-12-24T00:10:56.007Z,0.00
2018-12-24T00:11:56.178Z,0.00
2018-12-24T00:12:56.362Z,0.00
2018-12-24T00:13:56.522Z,0.00
2018-12-24T00:14:56.685Z,0.00
2018-12-24T00:15:56.860Z,0.00
2018-12-24T00:16:57.036Z,0.00
2018-12-24T00:17:57.199Z,0.00
2018-12-24T00:18:57.361Z,0.00
2018-12-24T00:19:57.527Z,0.00
2018-12-24T00:20:57.700Z,0.00
2018-12-24T00:21:57.815Z,0.00
2018-12-24T00:22:57.994Z,0.00
2018-12-24T00:23:58.202Z,0.00
2018-12-24T00:24:58.371Z,0.00
2018-12-24T00:25:58.540Z,0.00
2018-12-24T00:26:58.706Z,0.00
2018-12-24T00:27:58.885Z,0.00
2018-12-24T00:28:59.058Z,0.00
2018-12-24T00:29:59.270Z,0.00
2018-12-24T00:30:59.409Z,0.00
2018-12-24T00:31:59.575Z,0.00
2018-12-24T00:32:59.736Z,0.00
2018-12-24T00:33:59.907Z,0.00
2018-12-24T00:35:00.270Z,0.00
2018-12-24T00:36:00.238Z,0.00
2018-12-24T00:37:00.406Z,0.00
2018-12-24T00:38:00.725Z,0.00
2018-12-24T00:39:00.771Z,0.00
2018-12-24T00:40:00.999Z,0.00
2018-12-24T00:41:01.097Z,0.00
2018-12-24T00:42:01.247Z,0.00
2018-12-24T00:43:01.421Z,0.00
2018-12-24T00:44:01.609Z,0.00
2018-12-24T00:45:01.750Z,0.00
2018-12-24T00:46:01.912Z,0.00
2018-12-24T00:47:02.075Z,0.00
2018-12-24T00:48:02.266Z,0.00
2018-12-24T00:49:02.400Z,0.00
2018-12-24T00:50:02.555Z,0.00
2018-12-24T00:51:02.733Z,0.00
2018-12-24T00:52:03.213Z,0.00
2018-12-24T00:53:03.109Z,0.00
2018-12-24T00:54:03.270Z,0.00
2018-12-24T00:55:03.440Z,0.00
2018-12-24T00:56:03.617Z,0.00
2018-12-24T00:57:03.762Z,0.00
2018-12-24T00:58:03.931Z,0.00
2018-12-24T00:59:04.117Z,0.00
2018-12-24T01:00:04.274Z,0.00
2018-12-24T01:01:04.435Z,0.00
2018-12-24T01:02:04.608Z,0.00
2018-12-24T01:03:04.784Z,0.00
2018-12-24T01:04:04.953Z,0.00
2018-12-24T01:05:05.121Z,0.00
2018-12-24T01:06:05.286Z,0.00
2018-12-24T01:07:05.448Z,0.00
2018-12-24T01:08:05.615Z,0.00
2018-12-24T01:09:05.778Z,0.00
2018-12-24T01:10:05.936Z,0.00
2018-12-24T01:11:06.117Z,0.00
2018-12-24T01:12:06.278Z,0.00
2018-12-24T01:13:06.444Z,0.00
2018-12-24T01:14:06.681Z,0.00
2018-12-24T01:15:06.776Z,0.00
2018-12-24T01:16:06.943Z,0.00
2018-12-24T01:17:07.130Z,0.00
2018-12-24T01:18:07.271Z,0.00
2018-12-24T01:19:07.532Z,0.00
2018-12-24T01:20:07.620Z,0.00
2018-12-24T01:21:07.786Z,0.00
2018-12-24T01:22:07.975Z,0.00
2018-12-24T01:23:08.137Z,0.00
2018-12-24T01:24:08.325Z,0.00
2018-12-24T01:25:08.518Z,0.00
2018-12-24T01:26:09.464Z,0.00
2018-12-24T01:27:08.720Z,0.00
2018-12-24T01:28:08.898Z,0.00
2018-12-24T01:29:09.057Z,0.00
2018-12-24T01:30:09.220Z,0.00
2018-12-24T01:31:09.402Z,0.00
2018-12-24T01:32:09.606Z,0.00
2018-12-24T01:33:09.778Z,0.00
2018-12-24T01:34:09.948Z,0.00
2018-12-24T01:35:10.118Z,0.00
2018-12-24T01:36:10.286Z,0.00
2018-12-24T01:37:10.449Z,0.00
2018-12-24T01:38:10.614Z,0.00
2018-12-24T01:39:10.773Z,0.00
2018-12-24T01:40:10.957Z,0.00
2018-12-24T01:41:11.119Z,0.00
2018-12-24T01:42:11.290Z,0.00
2018-12-24T01:43:11.436Z,0.00
2018-12-24T01:44:13.420Z,0.00
2018-12-24T01:45:11.759Z,0.00
2018-12-24T01:46:11.934Z,0.00
2018-12-24T01:47:12.096Z,0.00
2018-12-24T01:48:12.260Z,0.00
2018-12-24T01:49:12.460Z,0.00
2018-12-24T01:50:12.618Z,0.00
2018-12-24T01:51:12.781Z,0.00
2018-12-24T01:52:12.955Z,0.00
2018-12-24T01:53:13.114Z,0.00
2018-12-24T01:54:13.308Z,0.00
2018-12-24T01:55:13.448Z,0.00
2018-12-24T01:56:13.605Z,0.00
2018-12-24T01:57:13.773Z,0.00
2018-12-24T01:58:14.053Z,0.00
2018-12-24T01:59:14.533Z,0.00
2018-12-24T02:00:14.217Z,0.00
2018-12-24T02:01:14.369Z,0.00
2018-12-24T02:02:14.539Z,0.00
2018-12-24T02:03:14.713Z,0.00
2018-12-24T02:04:14.876Z,0.00
2018-12-24T02:05:15.052Z,0.00
2018-12-24T02:06:15.225Z,0.00
2018-12-24T02:07:15.393Z,0.00
2018-12-24T02:08:15.569Z,0.00
2018-12-24T02:09:15.748Z,0.00
2018-12-24T02:10:15.879Z,0.00
2018-12-24T02:11:16.073Z,0.00
2018-12-24T02:12:16.205Z,0.00
2018-12-24T02:13:16.372Z,0.00
2018-12-24T02:14:16.534Z,0.00
2018-12-24T02:15:16.710Z,0.00
2018-12-24T02:16:16.856Z,0.00
2018-12-24T02:17:17.026Z,0.00
2018-12-24T02:18:17.191Z,0.00
2018-12-24T02:19:17.357Z,0.00
2018-12-24T02:20:17.515Z,0.00
2018-12-24T02:21:17.682Z,0.00
2018-12-24T02:22:17.845Z,0.00
2018-12-24T02:23:18.010Z,0.00
2018-12-24T02:24:18.191Z,0.00
2018-12-24T02:25:18.369Z,0.00
2018-12-24T02:26:18.517Z,0.00
2018-12-24T02:27:18.698Z,0.00
2018-12-24T02:28:18.875Z,0.00
2018-12-24T02:29:19.059Z,0.00
2018-12-24T02:30:19.222Z,0.00
2018-12-24T02:31:19.374Z,0.00
2018-12-24T02:32:19.549Z,0.00
2018-12-24T02:33:19.765Z,0.00
2018-12-24T02:34:19.879Z,0.00
2018-12-24T02:35:20.035Z,0.00
2018-12-24T02:36:20.221Z,0.00
2018-12-24T02:37:20.387Z,0.00
2018-12-24T02:38:20.648Z,0.00
2018-12-24T02:39:20.690Z,0.00
2018-12-24T02:40:20.862Z,0.00
2018-12-24T02:41:21.028Z,0.00
2018-12-24T02:42:21.192Z,0.00
2018-12-24T02:43:21.369Z,0.00
2018-12-24T02:44:21.553Z,0.00
2018-12-24T02:45:21.702Z,0.00
2018-12-24T02:46:21.853Z,0.00
2018-12-24T02:47:22.033Z,0.00
2018-12-24T02:48:22.202Z,0.00
2018-12-24T02:49:22.364Z,0.00
2018-12-24T02:50:22.537Z,0.00
2018-12-24T02:51:22.711Z,0.00
2018-12-24T02:52:22.894Z,0.00
2018-12-24T02:53:23.032Z,0.00
2018-12-24T02:54:23.210Z,0.00
2018-12-24T02:55:23.383Z,0.00
2018-12-24T02:56:23.550Z,0.00
2018-12-24T02:57:23.722Z,0.00
2018-12-24T02:58:23.882Z,0.00
2018-12-24T02:59:24.064Z,0.00
2018-12-24T03:00:24.214Z,0.00
2018-12-24T03:01:24.406Z,0.00
2018-12-24T03:02:24.556Z,0.00
2018-12-24T03:03:24.789Z,0.00
2018-12-24T03:04:24.856Z,0.00
2018-12-24T03:05:25.013Z,0.00
2018-12-24T03:06:25.185Z,0.00
2018-12-24T03:07:25.374Z,0.00
2018-12-24T03:08:25.511Z,0.00
2018-12-24T03:09:25.698Z,0.00
2018-12-24T03:10:25.842Z,0.00
2018-12-24T03:11:26.004Z,0.00
2018-12-24T03:12:26.183Z,0.00
2018-12-24T03:13:26.343Z,0.00
2018-12-24T03:14:26.523Z,0.00
2018-12-24T03:15:26.699Z,0.00
2018-12-24T03:16:26.863Z,0.00
2018-12-24T03:17:27.034Z,0.00
2018-12-24T03:18:27.209Z,0.00
2018-12-24T03:19:27.419Z,0.00
2018-12-24T03:20:27.543Z,0.00
2018-12-24T03:21:27.704Z,0.00
2018-12-24T03:22:27.879Z,0.00
2018-12-24T03:23:28.041Z,0.00
2018-12-24T03:24:28.209Z,0.00
2018-12-24T03:25:28.398Z,0.00
2018-12-24T03:26:28.604Z,0.00
2018-12-24T03:27:28.781Z,0.00
2018-12-24T03:28:28.950Z,0.00
2018-12-24T03:29:29.106Z,0.00
2018-12-24T03:30:29.287Z,0.00
2018-12-24T03:31:29.464Z,0.00
2018-12-24T03:32:29.639Z,0.00
2018-12-24T03:33:29.795Z,0.00
2018-12-24T03:34:29.962Z,0.00
2018-12-24T03:35:30.124Z,0.00
2018-12-24T03:36:30.288Z,0.00
2018-12-24T03:37:30.478Z,0.00
2018-12-24T03:38:30.659Z,0.00
2018-12-24T03:39:30.828Z,0.00
2018-12-24T03:40:30.990Z,0.00
2018-12-24T03:41:31.162Z,0.00
2018-12-24T03:42:31.329Z,0.00
2018-12-24T03:43:31.520Z,0.00
2018-12-24T03:44:31.662Z,0.00
2018-12-24T03:45:31.837Z,0.00
2018-12-24T03:46:32.048Z,0.00
2018-12-24T03:47:32.159Z,0.00
2018-12-24T03:48:32.317Z,0.00
2018-12-24T03:49:32.492Z,0.00
2018-12-24T03:50:32.687Z,0.00
2018-12-24T03:51:32.818Z,0.00
2018-12-24T03:52:33.022Z,0.00
2018-12-24T03:53:33.153Z,0.00
2018-12-24T03:54:33.353Z,0.00
2018-12-24T03:55:33.493Z,0.00
2018-12-24T03:56:33.678Z,0.00
2018-12-24T03:57:33.837Z,0.00
2018-12-24T03:58:34.000Z,0.00
2018-12-24T03:59:34.178Z,0.00
2018-12-24T04:00:34.340Z,0.00
2018-12-24T04:01:34.522Z,0.00
2018-12-24T04:02:34.635Z,0.00
2018-12-24T04:03:34.802Z,0.00
2018-12-24T04:04:34.959Z,0.00
2018-12-24T04:05:35.148Z,0.00
2018-12-24T04:06:35.351Z,0.00
2018-12-24T04:07:35.504Z,0.00
2018-12-24T04:08:35.684Z,0.00
2018-12-24T04:09:35.824Z,0.00
2018-12-24T04:10:36.000Z,0.00
2018-12-24T04:11:36.162Z,0.00
2018-12-24T04:12:36.332Z,0.00
2018-12-24T04:13:36.503Z,0.00
2018-12-24T04:14:36.686Z,0.00
2018-12-24T04:15:36.872Z,0.00
2018-12-24T04:16:37.038Z,0.00
2018-12-24T04:17:37.223Z,0.00
2018-12-24T04:18:37.401Z,0.00
2018-12-24T04:19:37.542Z,0.00
2018-12-24T04:20:37.706Z,0.00
2018-12-24T04:21:37.865Z,0.00
2018-12-24T04:22:38.039Z,0.00
2018-12-24T04:23:38.210Z,0.00
2018-12-24T04:24:38.373Z,0.00
2018-12-24T04:25:38.552Z,0.00
2018-12-24T04:26:38.714Z,0.00
2018-12-24T04:27:41.935Z,0.00
2018-12-24T04:28:39.034Z,0.00
2018-12-24T04:29:39.190Z,0.00
2018-12-24T04:30:39.395Z,0.00
2018-12-24T04:31:39.573Z,0.00
2018-12-24T04:32:39.745Z,0.00
2018-12-24T04:33:39.944Z,0.00
2018-12-24T04:34:40.134Z,0.00
2018-12-24T04:35:40.268Z,0.00
2018-12-24T04:36:40.427Z,0.00
2018-12-24T04:37:40.597Z,0.00
2018-12-24T04:38:40.770Z,0.00
2018-12-24T04:39:40.937Z,0.00
2018-12-24T04:40:41.120Z,0.00
2018-12-24T04:41:41.289Z,0.00
2018-12-24T04:42:41.449Z,0.00
2018-12-24T04:43:41.628Z,0.00
2018-12-24T04:44:41.777Z,0.00
2018-12-24T04:45:41.967Z,0.00
2018-12-24T04:46:42.098Z,0.00
2018-12-24T04:47:42.292Z,0.00
2018-12-24T04:48:42.428Z,0.00
2018-12-24T04:49:42.593Z,0.00
2018-12-24T04:50:42.759Z,0.00
2018-12-24T04:51:42.993Z,0.00
2018-12-24T04:52:43.093Z,0.00
2018-12-24T04:53:43.250Z,0.00
2018-12-24T04:54:43.426Z,0.00
2018-12-24T04:55:43.577Z,0.00
2018-12-24T04:56:43.755Z,0.00
2018-12-24T04:57:43.914Z,0.00
2018-12-24T04:58:44.090Z,0.00
2018-12-24T04:59:44.266Z,0.00
2018-12-24T05:00:44.425Z,0.00
2018-12-24T05:01:44.586Z,0.00
2018-12-24T05:02:44.751Z,0.00
2018-12-24T05:03:44.913Z,0.00
2018-12-24T05:04:45.073Z,0.00
2018-12-24T05:05:45.249Z,0.00
2018-12-24T05:06:45.404Z,0.00
2018-12-24T05:07:45.574Z,0.00
2018-12-24T05:08:45.744Z,0.00
2018-12-24T05:09:45.907Z,0.00
2018-12-24T05:10:46.092Z,0.00
2018-12-24T05:11:46.229Z,0.00
2018-12-24T05:12:46.398Z,0.00
2018-12-24T05:13:46.566Z,0.00
2018-12-24T05:14:46.738Z,0.00
2018-12-24T05:15:46.916Z,0.00
2018-12-24T05:16:47.082Z,0.00
2018-12-24T05:17:47.247Z,0.00
2018-12-24T05:18:47.414Z,0.00
2018-12-24T05:19:47.583Z,0.00
2018-12-24T05:20:47.746Z,0.00
2018-12-24T05:21:47.912Z,0.00
2018-12-24T05:22:48.081Z,0.00
2018-12-24T05:23:48.255Z,0.00
2018-12-24T05:24:48.409Z,0.00
2018-12-24T05:25:48.576Z,0.00
2018-12-24T05:26:48.770Z,0.00
2018-12-24T05:27:48.928Z,0.00
2018-12-24T05:28:49.098Z,0.00
2018-12-24T05:29:49.263Z,0.00
2018-12-24T05:30:49.426Z,0.00
2018-12-24T05:31:49.593Z,0.00
2018-12-24T05:32:49.755Z,0.00
2018-12-24T05:33:49.928Z,0.00
2018-12-24T05:34:50.094Z,0.00
2018-12-24T05:35:50.257Z,0.00
2018-12-24T05:36:50.421Z,0.00
2018-12-24T05:37:50.592Z,0.00
2018-12-24T05:38:50.760Z,0.00
2018-12-24T05:39:50.938Z,0.00
2018-12-24T05:40:51.109Z,0.00
2018-12-24T05:41:51.272Z,0.00
2018-12-24T05:42:51.438Z,0.00
2018-12-24T05:43:51.598Z,0.00
2018-12-24T05:44:51.775Z,0.00
2018-12-24T05:45:51.944Z,0.00
2018-12-24T05:46:52.105Z,0.00
2018-12-24T05:47:52.275Z,0.00
2018-12-24T05:48:52.438Z,0.00
2018-12-24T05:49:52.601Z,0.00
2018-12-24T05:50:52.771Z,0.00
2018-12-24T05:51:52.961Z,0.00
2018-12-24T05:52:53.167Z,0.00
2018-12-24T05:53:53.306Z,0.00
2018-12-24T05:54:53.469Z,0.00
2018-12-24T05:55:53.667Z,0.00
2018-12-24T05:56:53.789Z,0.00
2018-12-24T05:57:53.962Z,0.00
2018-12-24T05:58:54.134Z,0.00
2018-12-24T05:59:54.298Z,0.00
2018-12-24T06:00:54.453Z,0.00
2018-12-24T06:01:54.619Z,0.00
2018-12-24T06:02:54.804Z,0.00
2018-12-24T06:03:55.093Z,0.00
2018-12-24T06:04:55.146Z,0.00
2018-12-24T06:05:55.316Z,0.00
2018-12-24T06:06:55.479Z,0.00
2018-12-24T06:07:55.654Z,0.00
2018-12-24T06:08:55.820Z,0.00
2018-12-24T06:09:56.009Z,0.00
2018-12-24T06:10:56.162Z,0.00
2018-12-24T06:11:56.325Z,0.00
2018-12-24T06:12:56.431Z,0.00
2018-12-24T06:13:58.025Z,0.00
2018-12-24T06:14:56.764Z,0.00
2018-12-24T06:15:56.935Z,0.00
2018-12-24T06:16:57.110Z,0.00
2018-12-24T06:17:57.731Z,0.00
2018-12-24T06:18:57.545Z,0.00
2018-12-24T06:19:57.609Z,0.00
2018-12-24T06:20:57.774Z,0.00
2018-12-24T06:21:57.933Z,0.00
2018-12-24T06:22:58.095Z,0.00
2018-12-24T06:23:58.264Z,0.00
2018-12-24T06:24:58.427Z,0.00
2018-12-24T06:25:58.617Z,0.00
2018-12-24T06:26:58.765Z,0.00
2018-12-24T06:27:58.931Z,0.00
2018-12-24T06:28:59.132Z,0.00
2018-12-24T06:29:59.523Z,0.00
2018-12-24T06:30:59.444Z,0.00
2018-12-24T06:31:59.544Z,0.00
2018-12-24T06:32:59.712Z,0.00
2018-12-24T06:33:59.864Z,0.00
2018-12-24T06:35:00.039Z,0.00
2018-12-24T06:36:00.220Z,0.00
2018-12-24T06:37:00.396Z,0.00
2018-12-24T06:38:00.557Z,0.00
2018-12-24T06:39:00.727Z,0.00
2018-12-24T06:40:00.889Z,0.00
2018-12-24T06:41:01.068Z,0.00
2018-12-24T06:42:01.281Z,0.00
2018-12-24T06:43:01.444Z,0.00
2018-12-24T06:44:06.687Z,0.00
2018-12-24T06:45:01.777Z,0.00
2018-12-24T06:46:01.937Z,0.00
2018-12-24T06:47:02.102Z,0.00
2018-12-24T06:48:02.284Z,0.00
2018-12-24T06:49:02.438Z,0.00
2018-12-24T06:50:02.604Z,0.00
2018-12-24T06:51:02.770Z,0.00
2018-12-24T06:52:02.933Z,0.00
2018-12-24T06:53:03.106Z,0.00
2018-12-24T06:54:03.284Z,0.00
2018-12-24T06:55:03.450Z,4.00
2018-12-24T06:56:03.611Z,4.00
2018-12-24T06:57:03.774Z,0.00
2018-12-24T06:58:03.940Z,0.00
2018-12-24T06:59:05.374Z,0.00
2018-12-24T07:00:04.262Z,0.00
2018-12-24T07:01:04.421Z,4.00
2018-12-24T07:02:04.591Z,4.00
2018-12-24T07:03:04.772Z,4.00
2018-12-24T07:04:04.933Z,8.00
2018-12-24T07:05:05.123Z,4.00
2018-12-24T07:06:05.288Z,8.00
2018-12-24T07:07:05.483Z,12.00
2018-12-24T07:08:05.635Z,12.00
2018-12-24T07:09:05.801Z,16.00
2018-12-24T07:10:06.033Z,16.00
2018-12-24T07:11:06.092Z,16.00
2018-12-24T07:12:06.273Z,20.00
2018-12-24T07:13:06.452Z,24.00
2018-12-24T07:14:15.263Z,20.00
2018-12-24T07:15:06.863Z,20.00
2018-12-24T07:16:07.035Z,28.00
2018-12-24T07:17:07.207Z,28.00
2018-12-24T07:18:07.371Z,36.00
2018-12-24T07:19:07.557Z,28.00
2018-12-24T07:20:07.670Z,36.00
2018-12-24T07:21:07.841Z,44.00
2018-12-24T07:22:08.014Z,64.00
2018-12-24T07:23:08.180Z,76.00
2018-12-24T07:24:08.342Z,92.00
2018-12-24T07:25:08.499Z,116.00
2018-12-24T07:26:09.125Z,136.00
2018-12-24T07:27:08.832Z,148.00
2018-12-24T07:28:08.994Z,164.00
2018-12-24T07:29:09.190Z,184.00
2018-12-24T07:30:09.374Z,208.00
2018-12-24T07:31:13.779Z,224.00
2018-12-24T07:32:09.746Z,232.00
2018-12-24T07:33:09.916Z,248.00
2018-12-24T07:34:10.079Z,272.00
2018-12-24T07:35:10.245Z,296.00
2018-12-24T07:36:10.419Z,300.00
2018-12-24T07:37:10.584Z,316.00
2018-12-24T07:38:10.784Z,332.00
2018-12-24T07:39:10.860Z,352.00
2018-12-24T07:40:11.051Z,348.00
2018-12-24T07:41:11.185Z,352.00
2018-12-24T07:42:11.375Z,360.00
2018-12-24T07:43:11.539Z,372.00
2018-12-24T07:44:11.711Z,388.00
2018-12-24T07:45:11.884Z,384.00
2018-12-24T07:46:12.075Z,408.00
2018-12-24T07:47:12.235Z,388.00
2018-12-24T07:48:12.438Z,372.00
2018-12-24T07:49:12.564Z,364.00
2018-12-24T07:50:12.730Z,320.00
2018-12-24T07:51:12.890Z,300.00
2018-12-24T07:52:13.059Z,248.00
2018-12-24T07:53:13.219Z,220.00
2018-12-24T07:54:13.404Z,280.00
2018-12-24T07:55:13.558Z,240.00
2018-12-24T07:56:13.714Z,232.00
2018-12-24T07:57:13.876Z,296.00
2018-12-24T07:58:14.068Z,472.00
2018-12-24T07:59:14.188Z,524.00
2018-12-24T08:00:14.351Z,500.00
2018-12-24T08:01:14.517Z,576.00
2018-12-24T08:02:14.702Z,672.00
2018-12-24T08:03:14.904Z,676.00
2018-12-24T08:04:17.005Z,640.00
2018-12-24T08:05:15.208Z,568.00
2018-12-24T08:06:15.371Z,592.00
2018-12-24T08:07:15.532Z,636.00
2018-12-24T08:08:15.773Z,860.00
2018-12-24T08:09:15.860Z,696.00
2018-12-24T08:10:16.032Z,632.00
2018-12-24T08:11:16.192Z,632.00
2018-12-24T08:12:16.357Z,636.00
2018-12-24T08:13:16.517Z,516.00
2018-12-24T08:14:16.686Z,416.00
2018-12-24T08:15:16.863Z,428.00
2018-12-24T08:16:17.019Z,428.00
2018-12-24T08:17:17.192Z,400.00
2018-12-24T08:18:17.383Z,992.00
2018-12-24T08:19:17.551Z,384.00
2018-12-24T08:20:17.719Z,428.00
2018-12-24T08:21:17.879Z,400.00
2018-12-24T08:22:18.076Z,448.00
2018-12-24T08:23:18.213Z,492.00
2018-12-24T08:24:18.374Z,540.00
2018-12-24T08:25:18.549Z,744.00
2018-12-24T08:26:18.705Z,644.00
2018-12-24T08:27:18.866Z,652.00
2018-12-24T08:28:19.034Z,640.00
2018-12-24T08:29:19.209Z,620.00
2018-12-24T08:30:19.376Z,632.00
2018-12-24T08:31:19.555Z,540.00
2018-12-24T08:32:19.720Z,604.00
2018-12-24T08:33:19.913Z,632.00
2018-12-24T08:34:20.046Z,768.00
2018-12-24T08:35:20.216Z,932.00
2018-12-24T08:36:20.388Z,964.00
2018-12-24T08:37:20.602Z,972.00
2018-12-24T08:38:20.651Z,976.00
2018-12-24T08:39:20.832Z,1024.00
2018-12-24T08:40:21.024Z,1040.00
2018-12-24T08:41:21.211Z,1192.00
2018-12-24T08:42:21.440Z,1244.00
2018-12-24T08:43:21.491Z,1192.00
2018-12-24T08:44:21.682Z,1212.00
2018-12-24T08:45:21.841Z,1224.00
2018-12-24T08:46:22.021Z,1272.00
2018-12-24T08:47:22.236Z,1304.00
2018-12-24T08:48:22.409Z,1392.00
2018-12-24T08:49:22.572Z,1368.00
2018-12-24T08:50:22.750Z,1192.00
2018-12-24T08:51:22.918Z,1280.00
2018-12-24T08:52:23.089Z,1276.00
2018-12-24T08:53:23.268Z,1292.00
2018-12-24T08:54:23.425Z,1384.00
2018-12-24T08:55:23.592Z,1800.00
2018-12-24T08:56:23.770Z,2052.00
2018-12-24T08:57:23.945Z,2104.00
2018-12-24T08:58:24.121Z,2196.00
2018-12-24T08:59:24.275Z,2248.00
2018-12-24T09:00:24.463Z,2160.00
2018-12-24T09:01:24.610Z,2064.00
2018-12-24T09:02:24.795Z,2208.00
2018-12-24T09:03:24.977Z,2164.00
2018-12-24T09:04:25.242Z,2068.00
2018-12-24T09:05:25.321Z,2520.00
2018-12-24T09:06:25.484Z,3976.00
2018-12-24T09:07:25.654Z,5456.00
2018-12-24T09:08:25.823Z,4092.00
2018-12-24T09:09:25.987Z,7456.00
2018-12-24T09:10:26.166Z,4380.00
2018-12-24T09:11:26.328Z,4144.00
2018-12-24T09:12:26.500Z,4856.00
2018-12-24T09:13:30.414Z,5532.00
2018-12-24T09:14:26.796Z,5572.00
2018-12-24T09:15:26.973Z,5228.00
2018-12-24T09:16:27.149Z,4948.00
2018-12-24T09:17:27.296Z,5264.00
2018-12-24T09:18:27.459Z,5264.00
2018-12-24T09:19:27.641Z,5044.00
2018-12-24T09:20:27.799Z,4736.00
2018-12-24T09:21:27.977Z,5244.00
2018-12-24T09:22:28.149Z,5224.00
2018-12-24T09:23:28.306Z,5048.00
2018-12-24T09:24:28.486Z,4956.00
2018-12-24T09:25:28.657Z,4968.00
2018-12-24T09:26:28.749Z,5108.00
2018-12-24T09:27:28.923Z,5568.00
2018-12-24T09:28:29.082Z,4184.00
2018-12-24T09:29:29.259Z,4136.00
2018-12-24T09:30:29.428Z,4028.00
2018-12-24T09:31:31.689Z,5152.00
2018-12-24T09:32:29.741Z,4908.00
2018-12-24T09:33:29.933Z,3512.00
2018-12-24T09:34:30.085Z,5156.00
2018-12-24T09:35:30.261Z,5156.00
2018-12-24T09:36:30.537Z,4816.00
2018-12-24T09:37:30.617Z,3748.00
2018-12-24T09:38:30.785Z,3952.00
2018-12-24T09:39:30.955Z,3752.00
2018-12-24T09:40:31.116Z,2664.00
2018-12-24T09:41:31.290Z,2144.00
2018-12-24T09:42:31.466Z,4256.00
2018-12-24T09:43:31.634Z,3836.00
2018-12-24T09:44:31.794Z,4012.00
2018-12-24T09:45:31.972Z,3560.00
2018-12-24T09:46:32.152Z,4608.00
2018-12-24T09:47:32.335Z,4488.00
2018-12-24T09:48:32.512Z,4416.00
2018-12-24T09:49:32.710Z,4552.00
2018-12-24T09:50:32.870Z,2612.00
2018-12-24T09:51:33.030Z,4212.00
2018-12-24T09:52:33.198Z,4656.00
2018-12-24T09:53:33.409Z,3896.00
2018-12-24T09:54:33.458Z,3644.00
2018-12-24T09:55:33.629Z,2864.00
2018-12-24T09:56:33.840Z,2472.00
2018-12-24T09:57:33.962Z,3108.00
2018-12-24T09:58:34.133Z,3700.00
2018-12-24T09:59:34.304Z,3328.00
2018-12-24T10:00:34.469Z,3508.00
2018-12-24T10:01:34.640Z,2728.00
2018-12-24T10:02:34.812Z,2012.00
2018-12-24T10:03:34.980Z,2200.00
2018-12-24T10:04:35.202Z,3488.00
2018-12-24T10:05:35.368Z,3312.00
2018-12-24T10:06:35.566Z,4312.00
2018-12-24T10:07:35.701Z,2712.00
2018-12-24T10:08:35.864Z,2008.00
2018-12-24T10:09:36.066Z,2428.00
2018-12-24T10:10:36.213Z,3196.00
2018-12-24T10:11:36.391Z,3068.00
2018-12-24T10:12:36.554Z,2940.00
2018-12-24T10:13:36.753Z,2556.00
2018-12-24T10:14:36.852Z,3664.00
2018-12-24T10:15:37.033Z,3352.00
2018-12-24T10:16:37.203Z,3012.00
2018-12-24T10:17:37.366Z,2732.00
2018-12-24T10:18:37.537Z,3016.00
2018-12-24T10:19:37.708Z,2568.00
2018-12-24T10:20:37.882Z,2660.00
2018-12-24T10:21:38.062Z,2380.00
2018-12-24T10:22:38.208Z,1940.00
2018-12-24T10:23:38.438Z,1872.00
2018-12-24T10:24:38.512Z,2916.00
2018-12-24T10:25:38.671Z,3540.00
2018-12-24T10:26:38.840Z,3480.00
2018-12-24T10:27:39.009Z,3928.00
2018-12-24T10:28:39.168Z,3648.00
2018-12-24T10:29:39.335Z,2780.00
2018-12-24T10:30:39.501Z,2236.00
2018-12-24T10:31:39.665Z,2788.00
2018-12-24T10:32:39.837Z,2760.00
2018-12-24T10:33:40.020Z,2500.00
2018-12-24T10:34:40.215Z,2792.00
2018-12-24T10:35:40.389Z,2384.00
2018-12-24T10:36:40.631Z,3312.00
2018-12-24T10:37:40.714Z,3572.00
2018-12-24T10:38:40.874Z,3840.00
2018-12-24T10:39:41.041Z,4820.00
2018-12-24T10:40:41.212Z,4160.00
2018-12-24T10:41:41.388Z,3116.00
2018-12-24T10:42:41.563Z,2936.00
2018-12-24T10:43:41.713Z,2352.00
2018-12-24T10:44:41.874Z,2104.00
2018-12-24T10:45:42.039Z,2268.00
2018-12-24T10:46:42.214Z,3044.00
2018-12-24T10:47:42.379Z,3600.00
2018-12-24T10:48:42.539Z,2772.00
2018-12-24T10:49:42.712Z,2852.00
2018-12-24T10:50:42.879Z,2944.00
2018-12-24T10:51:43.038Z,2596.00
2018-12-24T10:52:43.201Z,2224.00
2018-12-24T10:53:43.370Z,1944.00
2018-12-24T10:54:43.543Z,2200.00
2018-12-24T10:55:43.714Z,3216.00
2018-12-24T10:56:43.876Z,4072.00
2018-12-24T10:57:44.053Z,4912.00
2018-12-24T10:58:44.220Z,4004.00
2018-12-24T10:59:44.381Z,4256.00
2018-12-24T11:00:44.542Z,4364.00
2018-12-24T11:01:44.854Z,4456.00
2018-12-24T11:02:45.037Z,3852.00
2018-12-24T11:03:45.040Z,2972.00
2018-12-24T11:04:45.216Z,3576.00
2018-12-24T11:05:45.383Z,3772.00
2018-12-24T11:06:45.560Z,3740.00
2018-12-24T11:07:45.729Z,3468.00
2018-12-24T11:08:45.893Z,3136.00
2018-12-24T11:09:46.060Z,4116.00
2018-12-24T11:10:46.776Z,4472.00
2018-12-24T11:11:46.390Z,4496.00
2018-12-24T11:12:46.561Z,3792.00
2018-12-24T11:13:46.726Z,3192.00
2018-12-24T11:14:46.892Z,2448.00
2018-12-24T11:15:47.061Z,2072.00
2018-12-24T11:16:47.227Z,2228.00
2018-12-24T11:17:47.405Z,2496.00
2018-12-24T11:18:47.570Z,2720.00
2018-12-24T11:19:47.744Z,3532.00
2018-12-24T11:20:47.902Z,4412.00
2018-12-24T11:21:48.071Z,5012.00
2018-12-24T11:22:48.237Z,5460.00
2018-12-24T11:23:48.394Z,4868.00
2018-12-24T11:24:48.571Z,3612.00
2018-12-24T11:25:48.734Z,3080.00
2018-12-24T11:26:48.891Z,2860.00
2018-12-24T11:27:49.066Z,3332.00
2018-12-24T11:28:49.227Z,3832.00
2018-12-24T11:29:49.394Z,4564.00
2018-12-24T11:30:49.559Z,4924.00
2018-12-24T11:31:49.830Z,3900.00
2018-12-24T11:32:49.873Z,3048.00
2018-12-24T11:33:50.028Z,2340.00
2018-12-24T11:34:50.192Z,1936.00
2018-12-24T11:35:50.366Z,1884.00
2018-12-24T11:36:50.537Z,1796.00
2018-12-24T11:37:50.703Z,1964.00
2018-12-24T11:38:50.872Z,2388.00
2018-12-24T11:39:51.031Z,2896.00
2018-12-24T11:40:51.196Z,2740.00
2018-12-24T11:41:51.364Z,2584.00
2018-12-24T11:42:51.556Z,3424.00
2018-12-24T11:43:51.721Z,2796.00
2018-12-24T11:44:51.898Z,3668.00
2018-12-24T11:45:52.062Z,4184.00
2018-12-24T11:46:52.230Z,3856.00
2018-12-24T11:47:52.394Z,3724.00
2018-12-24T11:48:52.589Z,3548.00
2018-12-24T11:49:52.736Z,3180.00
2018-12-24T11:50:52.907Z,4312.00
2018-12-24T11:51:53.069Z,4088.00
2018-12-24T11:52:53.231Z,4560.00
2018-12-24T11:53:53.398Z,3952.00
2018-12-24T11:54:53.560Z,4404.00
2018-12-24T11:55:53.735Z,4852.00
2018-12-24T11:56:53.891Z,3564.00
2018-12-24T11:57:54.055Z,3560.00
2018-12-24T11:58:54.221Z,3232.00
2018-12-24T11:59:54.387Z,2752.00
2018-12-24T12:00:54.552Z,3096.00
2018-12-24T12:01:54.707Z,2908.00
2018-12-24T12:02:54.867Z,2456.00
2018-12-24T12:03:55.033Z,2336.00
2018-12-24T12:04:55.199Z,2416.00
2018-12-24T12:05:55.369Z,2308.00
2018-12-24T12:06:55.534Z,2644.00
2018-12-24T12:07:55.700Z,2992.00
2018-12-24T12:08:55.864Z,3228.00
2018-12-24T12:09:56.030Z,3564.00
2018-12-24T12:10:56.198Z,3844.00
2018-12-24T12:11:56.357Z,4080.00
2018-12-24T12:12:56.532Z,4240.00
2018-12-24T12:13:56.703Z,4240.00
2018-12-24T12:14:56.866Z,3896.00
2018-12-24T12:15:57.030Z,3720.00
2018-12-24T12:16:57.199Z,3260.00
2018-12-24T12:17:57.368Z,3464.00
2018-12-24T12:18:57.534Z,4144.00
2018-12-24T12:19:57.692Z,6236.00
2018-12-24T12:20:57.854Z,8528.00
2018-12-24T12:21:58.026Z,8084.00
2018-12-24T12:22:58.179Z,8756.00
2018-12-24T12:23:58.343Z,9708.00
2018-12-24T12:24:58.555Z,10220.00
2018-12-24T12:25:58.718Z,10600.00
2018-12-24T12:26:58.890Z,10620.00
2018-12-24T12:27:59.030Z,10568.00
2018-12-24T12:28:59.210Z,10652.00
2018-12-24T12:29:59.369Z,9320.00
2018-12-24T12:30:59.544Z,8992.00
2018-12-24T12:31:59.687Z,8224.00
2018-12-24T12:32:59.885Z,8468.00
2018-12-24T12:34:00.021Z,8640.00
2018-12-24T12:35:03.160Z,5892.00
2018-12-24T12:36:03.811Z,7884.00
2018-12-24T12:37:00.507Z,7668.00
2018-12-24T12:38:00.670Z,8032.00
2018-12-24T12:39:00.836Z,7192.00
2018-12-24T12:40:01.009Z,6872.00
2018-12-24T12:41:01.202Z,6368.00
2018-12-24T12:42:01.363Z,6744.00
2018-12-24T12:43:01.528Z,6836.00
2018-12-24T12:44:01.710Z,5144.00
2018-12-24T12:45:01.886Z,2316.00
2018-12-24T12:46:02.070Z,2328.00
2018-12-24T12:47:02.280Z,2036.00
2018-12-24T12:48:02.417Z,1904.00
2018-12-24T12:49:02.583Z,1932.00
2018-12-24T12:50:02.805Z,1868.00